createdAt,value
2022-09-25T00:02:09.620Z,5.55
2022-09-25T00:04:37.114Z,4.47
2022-09-25T00:07:04.299Z,5.22
2022-09-25T00:09:31.556Z,5.57
2022-09-25T00:11:58.778Z,3.67
2022-09-25T00:14:25.978Z,4.32
2022-09-25T00:16:52.896Z,3.80
2022-09-25T00:19:40.458Z,4.75
2022-09-25T00:22:07.703Z,3.47
2022-09-25T00:24:35.253Z,7.35
2022-09-25T00:27:02.496Z,3.50
2022-09-25T00:29:30.937Z,3.75
2022-09-25T00:31:58.125Z,5.15
2022-09-25T00:34:25.443Z,5.72
2022-09-25T00:36:52.182Z,3.53
2022-09-25T00:39:19.379Z,4.65
2022-09-25T00:41:46.706Z,5.03
2022-09-25T00:44:32.420Z,3.78
2022-09-25T00:46:59.674Z,4.15
2022-09-25T00:49:26.897Z,4.50
2022-09-25T00:52:14.336Z,5.18
2022-09-25T00:54:47.780Z,3.78
2022-09-25T00:57:18.384Z,5.47
2022-09-25T00:59:50.803Z,4.53
2022-09-25T01:02:27.105Z,6.53
2022-09-25T01:04:56.021Z,4.03
2022-09-25T01:07:24.010Z,5.28
2022-09-25T01:09:51.282Z,3.80
2022-09-25T01:12:18.455Z,4.97
2022-09-25T01:14:45.645Z,3.47
2022-09-25T01:17:20.857Z,3.38
2022-09-25T01:19:48.082Z,4.13
2022-09-25T01:22:20.654Z,7.72
2022-09-25T01:25:36.497Z,4.53
2022-09-25T01:28:04.393Z,3.78
2022-09-25T01:30:32.994Z,3.80
2022-09-25T01:33:14.399Z,8.13
2022-09-25T01:36:20.127Z,4.55
2022-09-25T01:39:00.601Z,3.15
2022-09-25T01:41:45.391Z,6.45
2022-09-25T01:44:21.119Z,5.03
2022-09-25T01:46:51.000Z,3.80
2022-09-25T01:49:25.539Z,4.97
2022-09-25T01:51:55.878Z,6.80
2022-09-25T01:54:25.131Z,4.07
2022-09-25T01:56:55.185Z,4.53
2022-09-25T01:59:22.403Z,5.88
2022-09-25T02:01:49.907Z,4.80
2022-09-25T02:04:21.843Z,5.20
2022-09-25T02:06:50.456Z,5.63
2022-09-25T02:09:30.340Z,4.10
2022-09-25T02:11:59.980Z,5.65
2022-09-25T02:14:34.858Z,5.85
2022-09-25T02:17:07.170Z,5.78
2022-09-25T02:19:53.150Z,7.57
2022-09-25T02:22:23.297Z,11.00
2022-09-25T02:24:58.477Z,5.45
2022-09-25T02:27:27.567Z,6.18
2022-09-25T02:29:55.701Z,4.38
2022-09-25T02:32:28.880Z,7.20
2022-09-25T02:34:56.966Z,5.38
2022-09-25T02:37:24.230Z,5.22
2022-09-25T02:39:53.368Z,7.80
2022-09-25T02:42:39.609Z,5.85
2022-09-25T02:45:24.841Z,5.50
2022-09-25T02:47:58.307Z,5.30
2022-09-25T02:50:50.059Z,7.45
2022-09-25T02:53:47.057Z,6.57
2022-09-25T02:58:50.901Z,5.88
2022-09-25T03:01:19.527Z,8.02
2022-09-25T03:03:47.598Z,6.60
2022-09-25T03:06:14.837Z,7.30
2022-09-25T03:08:46.439Z,7.88
2022-09-25T03:11:15.217Z,6.07
2022-09-25T03:13:43.068Z,6.13
2022-09-25T03:16:18.751Z,9.65
2022-09-25T03:18:46.439Z,9.13
2022-09-25T03:21:13.632Z,7.28
2022-09-25T03:23:41.019Z,9.27
2022-09-25T03:26:08.463Z,9.90
2022-09-25T03:28:36.038Z,7.63
2022-09-25T03:31:07.405Z,6.85
2022-09-25T03:33:36.750Z,11.32
2022-09-25T03:36:10.807Z,8.48
2022-09-25T03:38:38.661Z,6.78
2022-09-25T03:41:08.817Z,8.45
2022-09-25T03:43:39.450Z,11.60
2022-09-25T03:46:08.126Z,10.13
2022-09-25T03:48:36.441Z,10.15
2022-09-25T03:51:03.982Z,9.10
2022-09-25T03:53:32.271Z,7.35
2022-09-25T03:56:00.172Z,7.60
2022-09-25T03:58:27.363Z,7.68
2022-09-25T04:00:57.435Z,9.68
2022-09-25T04:03:29.071Z,8.55
2022-09-25T04:05:57.705Z,7.53
2022-09-25T04:08:26.840Z,8.18
2022-09-25T04:10:59.285Z,8.73
2022-09-25T04:13:36.239Z,8.70
2022-09-25T04:16:04.210Z,10.20
2022-09-25T04:18:31.805Z,9.07
2022-09-25T04:21:00.062Z,13.20
2022-09-25T04:23:27.666Z,8.88
2022-09-25T04:25:54.603Z,9.07
2022-09-25T04:28:23.232Z,7.53
2022-09-25T04:30:50.557Z,8.93
2022-09-25T04:33:37.169Z,8.90
2022-09-25T04:38:32.393Z,8.80
2022-09-25T04:41:03.028Z,8.75
2022-09-25T04:43:32.896Z,9.65
2022-09-25T04:46:03.385Z,10.18
2022-09-25T04:48:30.987Z,7.88
2022-09-25T04:50:58.490Z,7.55
2022-09-25T04:53:27.256Z,12.75
2022-09-25T04:55:57.358Z,9.20
2022-09-25T04:58:24.535Z,8.25
2022-09-25T05:00:51.780Z,14.00
2022-09-25T05:03:18.674Z,10.65
2022-09-25T05:05:45.992Z,8.90
2022-09-25T05:08:12.892Z,9.70
2022-09-25T05:10:40.283Z,9.93
2022-09-25T05:13:09.254Z,10.18
2022-09-25T05:15:36.376Z,14.45
2022-09-25T05:18:08.162Z,18.30
2022-09-25T05:20:38.986Z,11.82
2022-09-25T05:23:06.208Z,15.57
2022-09-25T05:25:33.575Z,15.25
2022-09-25T05:28:02.126Z,17.05
2022-09-25T05:30:30.655Z,14.25
2022-09-25T05:33:01.218Z,15.45
2022-09-25T05:35:30.047Z,15.73
2022-09-25T05:37:57.330Z,17.35
2022-09-25T05:40:25.191Z,16.92
2022-09-25T05:42:52.430Z,11.15
2022-09-25T05:45:21.206Z,12.18
2022-09-25T05:47:48.159Z,14.27
2022-09-25T05:50:17.101Z,13.98
2022-09-25T05:52:44.861Z,15.73
2022-09-25T05:55:12.092Z,18.05
2022-09-25T05:57:39.654Z,17.17
2022-09-25T06:00:09.340Z,14.18
2022-09-25T06:02:39.831Z,14.48
2022-09-25T06:05:07.196Z,15.93
2022-09-25T06:07:33.935Z,16.13
2022-09-25T06:10:01.133Z,13.50
2022-09-25T06:12:31.787Z,11.20
2022-09-25T06:14:58.977Z,13.15
2022-09-25T06:17:26.161Z,17.52
2022-09-25T06:19:53.505Z,14.50
2022-09-25T06:22:20.667Z,15.82
2022-09-25T06:24:48.790Z,13.77
2022-09-25T06:27:16.014Z,14.38
2022-09-25T06:29:43.238Z,13.43
2022-09-25T06:32:10.421Z,13.82
2022-09-25T06:34:37.913Z,15.35
2022-09-25T06:37:04.693Z,12.57
2022-09-25T06:39:33.330Z,11.52
2022-09-25T06:42:00.558Z,13.43
2022-09-25T06:44:28.461Z,13.40
2022-09-25T06:46:55.253Z,11.68
2022-09-25T06:49:22.416Z,12.95
2022-09-25T06:51:51.250Z,11.45
2022-09-25T06:54:18.515Z,12.13
2022-09-25T06:56:49.843Z,11.02
2022-09-25T06:59:17.278Z,10.07
2022-09-25T07:01:44.532Z,10.27
2022-09-25T07:04:11.459Z,10.73
2022-09-25T07:06:38.697Z,14.27
2022-09-25T07:09:05.947Z,10.13
2022-09-25T07:11:32.713Z,10.30
2022-09-25T07:14:00.017Z,8.13
2022-09-25T07:16:28.572Z,9.02
2022-09-25T07:18:57.324Z,8.18
2022-09-25T07:21:25.126Z,7.00
2022-09-25T07:23:52.732Z,10.10
2022-09-25T07:26:22.311Z,8.02
2022-09-25T07:29:04.295Z,7.40
2022-09-25T07:31:33.494Z,12.70
2022-09-25T07:34:09.038Z,7.40
2022-09-25T07:36:38.659Z,6.68
2022-09-25T07:39:06.422Z,9.90
2022-09-25T07:41:34.283Z,8.48
2022-09-25T07:44:24.313Z,7.65
2022-09-25T07:46:48.787Z,9.63
2022-09-25T07:49:16.032Z,7.05
2022-09-25T07:51:43.259Z,8.77
2022-09-25T07:54:10.482Z,7.05
2022-09-25T07:56:38.376Z,9.82
2022-09-25T07:59:05.812Z,8.50
2022-09-25T08:01:37.106Z,7.93
2022-09-25T08:04:06.893Z,7.88
2022-09-25T08:06:38.530Z,8.40
2022-09-25T08:09:10.128Z,7.88
2022-09-25T08:11:38.075Z,6.70
2022-09-25T08:14:04.973Z,5.13
2022-09-25T08:16:31.914Z,7.45
2022-09-25T08:18:59.194Z,6.05
2022-09-25T08:21:26.327Z,6.07
2022-09-25T08:23:54.293Z,6.25
2022-09-25T08:26:22.459Z,8.25
2022-09-25T08:28:50.752Z,6.20
2022-09-25T08:31:18.235Z,5.30
2022-09-25T08:33:50.139Z,7.85
2022-09-25T08:36:18.025Z,7.57
2022-09-25T08:38:45.824Z,5.70
2022-09-25T08:41:19.138Z,4.32
2022-09-25T08:43:55.088Z,5.43
2022-09-25T08:46:48.833Z,7.72
2022-09-25T08:49:16.190Z,6.88
2022-09-25T08:51:49.042Z,8.00
2022-09-25T08:54:30.117Z,6.03
2022-09-25T08:57:10.998Z,6.53
2022-09-25T08:59:42.648Z,5.75
2022-09-25T09:02:38.563Z,4.93
2022-09-25T09:05:15.509Z,10.00
2022-09-25T09:07:49.987Z,6.53
2022-09-25T09:10:49.989Z,5.68
2022-09-25T09:13:23.136Z,5.18
2022-09-25T09:15:57.071Z,7.35
2022-09-25T09:18:29.296Z,11.30
2022-09-25T09:21:16.742Z,8.13
2022-09-25T09:24:10.120Z,5.75
2022-09-25T09:26:37.393Z,6.53
2022-09-25T09:29:13.320Z,6.95
2022-09-25T09:32:07.292Z,8.05
2022-09-25T09:35:12.711Z,6.50
2022-09-25T09:37:42.350Z,6.53
2022-09-25T09:40:28.370Z,7.85
2022-09-25T09:43:06.636Z,4.95
2022-09-25T09:45:33.819Z,4.82
2022-09-25T09:48:06.930Z,5.93
2022-09-25T09:50:54.029Z,8.27
2022-09-25T09:53:24.045Z,6.45
2022-09-25T09:55:54.024Z,6.45
2022-09-25T09:58:26.886Z,11.35
2022-09-25T10:00:54.236Z,7.40
2022-09-25T10:03:25.262Z,7.22
2022-09-25T10:05:57.945Z,7.35
2022-09-25T10:08:25.123Z,8.43
2022-09-25T10:10:56.452Z,5.95
2022-09-25T10:13:37.106Z,5.45
2022-09-25T10:16:13.946Z,8.13
2022-09-25T10:18:41.166Z,6.63
2022-09-25T10:21:13.319Z,7.53
2022-09-25T10:23:51.033Z,7.38
2022-09-25T10:26:38.467Z,8.98
2022-09-25T10:29:19.301Z,9.10
2022-09-25T10:31:47.142Z,8.50
2022-09-25T10:34:16.442Z,6.30
2022-09-25T10:36:47.733Z,5.30
2022-09-25T10:39:44.748Z,7.20
2022-09-25T10:42:39.324Z,5.35
2022-09-25T10:45:23.948Z,5.22
2022-09-25T10:48:10.368Z,8.82
2022-09-25T10:50:37.343Z,5.53
2022-09-25T10:53:05.614Z,5.45
2022-09-25T10:55:35.453Z,5.70
2022-09-25T10:58:11.466Z,4.80
2022-09-25T11:00:44.258Z,4.63
2022-09-25T11:03:21.603Z,5.07
2022-09-25T11:05:55.495Z,4.57
2022-09-25T11:08:27.993Z,6.22
2022-09-25T11:10:59.196Z,7.20
2022-09-25T11:13:26.447Z,5.95
2022-09-25T11:15:58.234Z,5.68
2022-09-25T11:18:35.056Z,4.95
2022-09-25T11:21:03.424Z,6.53
2022-09-25T11:23:45.688Z,4.53
2022-09-25T11:26:22.822Z,5.25
2022-09-25T11:29:16.768Z,5.50
2022-09-25T11:31:52.181Z,5.60
2022-09-25T11:34:27.964Z,7.65
2022-09-25T11:37:12.781Z,6.28
2022-09-25T11:40:05.400Z,5.72
2022-09-25T11:42:53.834Z,5.75
2022-09-25T11:45:26.319Z,6.43
2022-09-25T11:48:21.184Z,7.68
2022-09-25T11:51:17.021Z,8.90
2022-09-25T11:54:32.585Z,12.32
2022-09-25T11:57:04.881Z,10.43
2022-09-25T11:59:47.223Z,9.30
2022-09-25T12:02:45.891Z,8.60
2022-09-25T12:05:49.617Z,12.02
2022-09-25T12:08:34.563Z,12.30
2022-09-25T12:11:18.940Z,10.00
2022-09-25T12:13:49.524Z,9.88
2022-09-25T12:16:25.762Z,12.45
2022-09-25T12:18:52.984Z,11.43
2022-09-25T12:21:52.543Z,11.15
2022-09-25T12:24:33.116Z,10.73
2022-09-25T12:27:12.056Z,9.18
2022-09-25T12:29:47.135Z,13.48
2022-09-25T12:32:44.594Z,6.93
2022-09-25T12:35:27.000Z,7.28
2022-09-25T12:38:03.745Z,7.53
2022-09-25T12:40:31.226Z,7.75
2022-09-25T12:43:34.877Z,9.48
2022-09-25T12:46:23.524Z,7.57
2022-09-25T12:49:27.763Z,4.15
2022-09-25T12:51:59.203Z,6.05
2022-09-25T12:54:38.409Z,4.78
2022-09-25T12:57:21.368Z,8.77
2022-09-25T12:59:58.532Z,4.63
2022-09-25T13:02:44.335Z,6.85
2022-09-25T13:05:21.958Z,5.45
2022-09-25T13:07:49.324Z,4.13
2022-09-25T13:10:19.366Z,5.32
2022-09-25T13:12:47.866Z,5.07
2022-09-25T13:15:19.990Z,4.03
2022-09-25T13:17:47.185Z,8.75
2022-09-25T13:20:29.903Z,5.90
2022-09-25T13:23:13.658Z,3.38
2022-09-25T13:25:47.224Z,6.40
2022-09-25T13:28:24.363Z,5.55
2022-09-25T13:31:09.978Z,5.93
2022-09-25T13:33:49.988Z,4.05
2022-09-25T13:36:28.235Z,4.35
2022-09-25T13:39:18.807Z,3.85
2022-09-25T13:41:55.220Z,6.10
2022-09-25T13:44:41.133Z,3.28
2022-09-25T13:47:25.719Z,3.63
2022-09-25T13:50:05.423Z,6.43
2022-09-25T13:53:14.695Z,3.53
2022-09-25T13:55:42.983Z,3.20
2022-09-25T13:58:36.637Z,6.15
2022-09-25T14:01:20.894Z,2.40
2022-09-25T14:03:50.070Z,6.43
2022-09-25T14:06:29.970Z,3.67
2022-09-25T14:09:00.771Z,4.90
2022-09-25T14:11:37.725Z,7.60
2022-09-25T14:14:39.060Z,5.53
2022-09-25T14:17:10.516Z,6.57
2022-09-25T14:19:42.546Z,7.03
2022-09-25T14:22:40.465Z,7.65
2022-09-25T14:25:27.430Z,5.68
2022-09-25T14:27:55.165Z,2.92
2022-09-25T14:30:22.584Z,8.25
2022-09-25T14:33:20.189Z,5.82
2022-09-25T14:36:15.332Z,3.83
2022-09-25T14:39:01.341Z,3.88
2022-09-25T14:41:34.841Z,2.58
2022-09-25T14:44:02.265Z,3.03
2022-09-25T14:46:29.676Z,6.97
2022-09-25T14:49:16.019Z,5.72
2022-09-25T14:51:47.150Z,3.22
2022-09-25T14:54:20.613Z,4.18
2022-09-25T14:56:50.539Z,5.65
2022-09-25T14:59:42.185Z,2.33
2022-09-25T15:02:33.894Z,7.50
2022-09-25T15:05:20.308Z,5.63
2022-09-25T15:07:47.950Z,4.50
2022-09-25T15:10:41.055Z,2.97
2022-09-25T15:13:09.787Z,2.83
2022-09-25T15:15:38.552Z,4.30
2022-09-25T15:18:12.420Z,3.72
2022-09-25T15:20:45.287Z,5.65
2022-09-25T15:23:19.581Z,3.40
2022-09-25T15:25:52.420Z,3.70
2022-09-25T15:28:23.092Z,3.42
2022-09-25T15:30:56.861Z,3.67
2022-09-25T15:33:29.114Z,4.25
2022-09-25T15:35:57.470Z,3.30
2022-09-25T15:38:38.642Z,2.42
2022-09-25T15:41:10.431Z,5.05
2022-09-25T15:43:37.644Z,3.22
2022-09-25T15:46:07.680Z,3.83
2022-09-25T15:48:40.938Z,3.55
2022-09-25T15:51:15.793Z,3.97
2022-09-25T15:53:49.873Z,2.53
2022-09-25T15:56:24.541Z,3.60
2022-09-25T15:58:59.249Z,4.60
2022-09-25T16:01:48.543Z,5.88
2022-09-25T16:04:38.815Z,4.07
2022-09-25T16:07:22.957Z,2.28
2022-09-25T16:09:51.156Z,4.18
2022-09-25T16:12:27.661Z,2.63
2022-09-25T16:14:55.744Z,1.75
2022-09-25T16:17:26.109Z,3.10
2022-09-25T16:20:08.199Z,3.58
2022-09-25T16:22:39.104Z,1.90
2022-09-25T16:25:17.201Z,5.05
2022-09-25T16:27:45.079Z,6.75
2022-09-25T16:30:19.572Z,3.63
2022-09-25T16:32:48.322Z,2.33
2022-09-25T16:35:25.046Z,1.20
2022-09-25T16:37:53.641Z,2.92
2022-09-25T16:40:38.549Z,1.63
2022-09-25T16:43:25.128Z,4.68
2022-09-25T16:48:27.909Z,3.15
2022-09-25T16:50:55.849Z,5.13
2022-09-25T16:53:25.830Z,3.70
2022-09-25T16:55:54.025Z,3.47
2022-09-25T16:58:22.924Z,2.17
2022-09-25T17:00:50.541Z,4.38
2022-09-25T17:03:17.327Z,3.53
2022-09-25T17:05:44.588Z,3.92
2022-09-25T17:08:19.006Z,4.25
2022-09-25T17:10:49.344Z,5.20
2022-09-25T17:13:17.284Z,7.60
2022-09-25T17:15:44.748Z,5.47
2022-09-25T17:18:15.151Z,7.72
2022-09-25T17:20:42.351Z,10.90
2022-09-25T17:23:10.829Z,8.05
2022-09-25T17:25:47.993Z,9.10
2022-09-25T17:28:15.939Z,4.05
2022-09-25T17:30:43.949Z,2.85
2022-09-25T17:33:16.526Z,2.05
2022-09-25T17:35:47.294Z,3.63
2022-09-25T17:38:14.492Z,6.30
2022-09-25T17:40:46.867Z,2.25
2022-09-25T17:43:15.198Z,4.30
2022-09-25T17:45:51.032Z,4.20
2022-09-25T17:48:24.049Z,3.88
2022-09-25T17:50:52.661Z,2.08
2022-09-25T17:53:22.756Z,1.98
2022-09-25T17:55:53.610Z,2.80
2022-09-25T17:58:22.174Z,2.30
2022-09-25T18:00:50.036Z,7.32
2022-09-25T18:03:18.387Z,5.28
2022-09-25T18:05:46.815Z,2.90
2022-09-25T18:08:14.859Z,5.55
2022-09-25T18:10:42.557Z,3.90
2022-09-25T18:13:14.756Z,4.32
2022-09-25T18:15:48.782Z,5.50
2022-09-25T18:18:16.267Z,2.47
2022-09-25T18:21:06.937Z,3.13
2022-09-25T18:23:39.044Z,5.25
2022-09-25T18:26:08.938Z,4.30
2022-09-25T18:28:35.839Z,8.77
2022-09-25T18:31:03.425Z,3.47
2022-09-25T18:33:31.147Z,9.25
2022-09-25T18:35:57.960Z,6.88
2022-09-25T18:38:25.188Z,7.90
2022-09-25T18:40:52.135Z,6.63
2022-09-25T18:43:19.768Z,3.65
2022-09-25T18:45:53.019Z,2.90
2022-09-25T18:48:21.938Z,5.35
2022-09-25T18:50:49.854Z,2.13
2022-09-25T18:53:17.771Z,3.80
2022-09-25T18:55:45.316Z,3.65
2022-09-25T18:58:13.048Z,2.80
2022-09-25T19:00:40.125Z,4.45
2022-09-25T19:03:07.637Z,3.35
2022-09-25T19:05:34.899Z,5.25
2022-09-25T19:08:03.429Z,4.50
2022-09-25T19:10:31.451Z,3.28
2022-09-25T19:12:58.617Z,3.60
2022-09-25T19:15:26.211Z,2.58
2022-09-25T19:17:53.443Z,2.35
2022-09-25T19:20:20.654Z,3.63
2022-09-25T19:22:47.424Z,3.45
2022-09-25T19:25:18.954Z,3.20
2022-09-25T19:27:48.972Z,1.42
2022-09-25T19:30:16.241Z,2.70
2022-09-25T19:32:43.253Z,5.32
2022-09-25T19:35:11.257Z,3.35
2022-09-25T19:37:38.966Z,4.38
2022-09-25T19:40:24.927Z,16.08
2022-09-25T19:42:51.701Z,3.67
2022-09-25T19:45:19.290Z,2.83
2022-09-25T19:47:46.403Z,6.25
2022-09-25T19:50:13.648Z,5.25
2022-09-25T19:52:40.845Z,5.88
2022-09-25T19:55:08.687Z,8.00
2022-09-25T19:57:36.527Z,4.07
2022-09-25T20:00:04.594Z,3.10
2022-09-25T20:02:36.051Z,2.20
2022-09-25T20:05:03.348Z,4.85
2022-09-25T20:07:30.531Z,6.25
2022-09-25T20:09:57.865Z,3.05
2022-09-25T20:12:24.649Z,8.00
2022-09-25T20:14:51.864Z,3.25
2022-09-25T20:17:19.132Z,3.40
2022-09-25T20:19:46.036Z,3.75
2022-09-25T20:22:12.791Z,4.57
2022-09-25T20:24:40.002Z,6.03
2022-09-25T20:27:07.530Z,6.18
2022-09-25T20:29:34.963Z,9.40
2022-09-25T20:32:02.247Z,5.88
2022-09-25T20:34:29.440Z,6.22
2022-09-25T20:36:56.913Z,5.57
2022-09-25T20:39:24.038Z,4.40
2022-09-25T20:41:51.623Z,7.05
2022-09-25T20:44:18.842Z,5.05
2022-09-25T20:46:46.096Z,3.97
2022-09-25T20:49:13.388Z,3.03
2022-09-25T20:51:41.205Z,8.98
2022-09-25T20:54:09.448Z,5.22
2022-09-25T20:56:37.806Z,3.95
2022-09-25T20:59:05.709Z,3.10
2022-09-25T21:01:35.588Z,6.10
2022-09-25T21:04:04.473Z,8.60
2022-09-25T21:06:33.398Z,3.75
2022-09-25T21:09:01.731Z,4.57
2022-09-25T21:11:30.355Z,6.20
2022-09-25T21:13:58.890Z,8.77
2022-09-25T21:16:26.990Z,4.82
2022-09-25T21:18:56.428Z,4.10
2022-09-25T21:21:24.882Z,3.42
2022-09-25T21:23:56.504Z,8.70
2022-09-25T21:26:25.973Z,5.30
2022-09-25T21:28:54.990Z,4.18
2022-09-25T21:31:26.567Z,4.55
2022-09-25T21:33:54.918Z,9.07
2022-09-25T21:36:23.033Z,4.43
2022-09-25T21:38:50.597Z,5.82
2022-09-25T21:41:18.973Z,4.68
2022-09-25T21:43:46.281Z,3.00
2022-09-25T21:46:18.282Z,8.18
2022-09-25T21:48:52.984Z,6.78
2022-09-25T21:51:21.344Z,3.20
2022-09-25T21:53:48.901Z,5.13
2022-09-25T21:56:21.996Z,6.45
2022-09-25T21:58:49.670Z,2.35
2022-09-25T22:01:18.501Z,3.90
2022-09-25T22:03:50.718Z,2.28
2022-09-25T22:06:20.131Z,6.75
2022-09-25T22:08:49.355Z,2.03
2022-09-25T22:11:16.787Z,3.20
2022-09-25T22:13:44.753Z,4.20
2022-09-25T22:16:13.663Z,3.30
2022-09-25T22:18:42.603Z,3.05
2022-09-25T22:21:10.928Z,11.13
2022-09-25T22:23:38.094Z,4.47
2022-09-25T22:26:05.938Z,6.70
2022-09-25T22:28:34.113Z,2.10
2022-09-25T22:31:08.586Z,4.40
2022-09-25T22:33:36.098Z,2.35
2022-09-25T22:36:04.029Z,4.30
2022-09-25T22:38:31.291Z,5.68
2022-09-25T22:41:02.709Z,3.00
2022-09-25T22:43:29.591Z,3.78
2022-09-25T22:45:56.842Z,3.15
2022-09-25T22:48:23.680Z,4.88
2022-09-25T22:50:58.599Z,2.38
2022-09-25T22:53:26.599Z,9.35
2022-09-25T22:55:53.789Z,3.13
2022-09-25T22:58:21.410Z,8.98
2022-09-25T23:00:50.484Z,4.00
2022-09-25T23:03:18.736Z,4.03
2022-09-25T23:05:46.006Z,2.65
2022-09-25T23:08:13.280Z,5.53
2022-09-25T23:11:05.718Z,6.10
2022-09-25T23:13:27.680Z,5.63
2022-09-25T23:15:55.112Z,4.10
2022-09-25T23:18:22.344Z,2.95
2022-09-25T23:20:53.459Z,3.15
2022-09-25T23:23:21.009Z,4.35
2022-09-25T23:25:48.181Z,2.03
2022-09-25T23:28:15.510Z,2.75
2022-09-25T23:30:42.422Z,3.10
2022-09-25T23:33:09.680Z,3.22
2022-09-25T23:35:36.914Z,2.53
2022-09-25T23:38:04.515Z,5.38
2022-09-25T23:40:31.821Z,6.18
2022-09-25T23:42:59.088Z,4.47
2022-09-25T23:45:28.208Z,2.50
2022-09-25T23:47:55.072Z,6.75
2022-09-25T23:50:21.829Z,4.32
2022-09-25T23:52:49.060Z,4.38
2022-09-25T23:55:15.996Z,14.60
2022-09-25T23:57:43.524Z,4.93
